createdAt,value
2023-03-22T00:03:00.093Z,58.37
2023-03-22T00:06:02.632Z,61.17
2023-03-22T00:09:06.241Z,63.83
2023-03-22T00:12:08.656Z,57.77
2023-03-22T00:15:11.238Z,59.77
2023-03-22T00:18:14.522Z,63.10
2023-03-22T00:21:17.577Z,64.00
2023-03-22T00:24:21.161Z,60.43
2023-03-22T00:27:23.187Z,60.47
2023-03-22T00:30:25.557Z,61.40
2023-03-22T00:33:29.228Z,64.23
2023-03-22T00:36:31.544Z,60.70
2023-03-22T00:39:33.552Z,60.87
2023-03-22T00:42:41.279Z,62.60
2023-03-22T00:45:43.505Z,63.17
2023-03-22T00:48:46.133Z,61.93
2023-03-22T00:51:48.425Z,61.27
2023-03-22T00:54:51.383Z,64.30
2023-03-22T00:57:53.376Z,60.80
2023-03-22T01:00:55.877Z,61.63
2023-03-22T01:03:58.005Z,63.90
2023-03-22T01:07:02.063Z,62.53
2023-03-22T01:10:06.232Z,57.53
2023-03-22T01:13:09.602Z,59.53
2023-03-22T01:16:11.730Z,60.53
2023-03-22T01:19:14.101Z,59.73
2023-03-22T01:22:16.260Z,58.30
2023-03-22T01:25:18.844Z,60.40
2023-03-22T01:28:20.939Z,62.07
2023-03-22T01:31:23.324Z,60.03
2023-03-22T01:34:26.714Z,56.43
2023-03-22T01:37:29.084Z,58.23
2023-03-22T01:40:31.161Z,59.10
2023-03-22T01:43:33.527Z,61.27
2023-03-22T01:46:35.904Z,55.40
2023-03-22T01:49:40.230Z,59.97
2023-03-22T01:52:42.706Z,61.00
2023-03-22T01:55:46.779Z,58.57
2023-03-22T01:58:50.275Z,54.97
2023-03-22T02:01:52.569Z,58.63
2023-03-22T02:04:58.143Z,54.13
2023-03-22T02:08:01.076Z,55.63
2023-03-22T02:11:04.609Z,55.97
2023-03-22T02:14:28.215Z,56.20
2023-03-22T02:17:44.687Z,61.67
2023-03-22T02:21:05.550Z,56.43
2023-03-22T02:24:46.271Z,51.73
2023-03-22T02:27:51.320Z,58.13
2023-03-22T02:30:53.318Z,56.53
2023-03-22T02:34:16.066Z,57.27
2023-03-22T02:37:39.005Z,52.53
2023-03-22T02:41:11.099Z,56.17
2023-03-22T02:44:33.711Z,55.30
2023-03-22T02:47:49.194Z,57.43
2023-03-22T02:50:59.983Z,53.23
2023-03-22T02:54:45.306Z,54.07
2023-03-22T02:58:07.174Z,54.03
2023-03-22T03:01:15.232Z,57.30
2023-03-22T03:04:40.219Z,58.37
2023-03-22T03:07:46.940Z,56.33
2023-03-22T03:10:50.295Z,58.03
2023-03-22T03:13:52.617Z,54.63
2023-03-22T03:17:14.863Z,55.30
2023-03-22T03:20:38.570Z,59.90
2023-03-22T03:24:01.795Z,62.13
2023-03-22T03:27:28.045Z,58.33
2023-03-22T03:30:41.285Z,53.57
2023-03-22T03:33:58.731Z,55.27
2023-03-22T03:37:08.325Z,55.47
2023-03-22T03:40:13.061Z,55.47
2023-03-22T03:43:16.436Z,52.63
2023-03-22T03:46:20.020Z,56.17
2023-03-22T03:49:23.749Z,52.00
2023-03-22T03:52:26.425Z,51.10
2023-03-22T03:55:29.350Z,52.00
2023-03-22T03:58:31.786Z,53.03
2023-03-22T04:01:33.809Z,57.90
2023-03-22T04:04:36.230Z,54.77
2023-03-22T04:07:38.896Z,53.93
2023-03-22T04:10:41.465Z,52.17
2023-03-22T04:13:43.737Z,56.07
2023-03-22T04:16:46.190Z,51.83
2023-03-22T04:19:48.371Z,56.90
2023-03-22T04:22:52.641Z,50.50
2023-03-22T04:25:54.789Z,47.60
2023-03-22T04:28:58.568Z,54.93
2023-03-22T04:32:00.709Z,50.17
2023-03-22T04:35:03.286Z,53.43
2023-03-22T04:38:05.345Z,53.90
2023-03-22T04:41:10.858Z,52.90
2023-03-22T04:44:13.059Z,51.90
2023-03-22T04:47:15.823Z,52.30
2023-03-22T04:50:17.955Z,48.40
2023-03-22T04:53:20.343Z,46.13
2023-03-22T04:56:22.544Z,52.30
2023-03-22T04:59:26.155Z,47.77
2023-03-22T05:02:28.211Z,46.10
2023-03-22T05:05:30.586Z,45.00
2023-03-22T05:08:33.097Z,47.77
2023-03-22T05:11:36.284Z,50.43
2023-03-22T05:14:38.366Z,45.53
2023-03-22T05:17:40.662Z,48.00
2023-03-22T05:20:43.355Z,46.47
2023-03-22T05:23:46.223Z,50.07
2023-03-22T05:26:53.763Z,47.00
2023-03-22T05:29:56.141Z,47.00
2023-03-22T05:33:03.181Z,48.20
2023-03-22T05:36:05.947Z,40.17
2023-03-22T05:39:08.186Z,41.63
2023-03-22T05:42:10.602Z,43.63
2023-03-22T05:45:12.650Z,56.03
2023-03-22T05:48:14.997Z,51.80
2023-03-22T05:51:25.889Z,44.07
2023-03-22T05:54:28.176Z,45.77
2023-03-22T05:57:30.248Z,44.13
2023-03-22T06:00:32.512Z,40.90
2023-03-22T06:03:34.607Z,38.07
2023-03-22T06:06:36.994Z,36.20
2023-03-22T06:09:39.175Z,39.43
2023-03-22T06:12:42.020Z,38.13
2023-03-22T06:15:44.161Z,33.33
2023-03-22T06:18:46.429Z,36.23
2023-03-22T06:21:48.611Z,36.20
2023-03-22T06:24:51.233Z,33.70
2023-03-22T06:27:53.483Z,34.47
2023-03-22T06:30:56.362Z,32.07
2023-03-22T06:33:58.407Z,31.87
2023-03-22T06:37:01.578Z,31.70
2023-03-22T06:40:04.769Z,31.10
2023-03-22T06:43:07.528Z,32.77
2023-03-22T06:46:09.642Z,26.67
2023-03-22T06:49:12.026Z,25.77
2023-03-22T06:52:14.136Z,29.63
2023-03-22T06:55:16.596Z,23.63
2023-03-22T06:58:18.680Z,22.35
2023-03-22T07:01:21.821Z,24.53
2023-03-22T07:04:25.102Z,25.53
2023-03-22T07:07:27.337Z,26.47
2023-03-22T07:10:30.178Z,27.37
2023-03-22T07:13:32.770Z,32.67
2023-03-22T07:16:34.856Z,32.83
2023-03-22T07:19:37.185Z,32.40
2023-03-22T07:22:39.178Z,30.00
2023-03-22T07:25:41.570Z,34.40
2023-03-22T07:28:44.680Z,26.13
2023-03-22T07:31:47.052Z,27.92
2023-03-22T07:34:49.104Z,27.35
2023-03-22T07:37:52.761Z,29.58
2023-03-22T07:40:55.548Z,26.60
2023-03-22T07:44:07.892Z,24.85
2023-03-22T07:47:30.574Z,26.08
2023-03-22T07:50:37.259Z,26.70
2023-03-22T07:53:39.490Z,26.65
2023-03-22T07:56:42.685Z,26.92
2023-03-22T07:59:44.938Z,24.73
2023-03-22T08:02:47.239Z,36.05
2023-03-22T08:05:49.699Z,24.65
2023-03-22T08:08:52.213Z,27.83
2023-03-22T08:11:54.324Z,28.60
2023-03-22T08:14:56.635Z,26.17
2023-03-22T08:17:58.668Z,25.92
2023-03-22T08:21:01.064Z,28.10
2023-03-22T08:24:03.880Z,26.88
2023-03-22T08:27:06.306Z,24.48
2023-03-22T08:30:08.985Z,24.05
2023-03-22T08:33:11.374Z,20.77
2023-03-22T08:36:17.132Z,24.65
2023-03-22T08:39:19.467Z,22.10
2023-03-22T08:42:23.027Z,20.67
2023-03-22T08:45:25.982Z,18.05
2023-03-22T08:48:30.650Z,73.20
2023-03-22T08:51:32.989Z,24.23
2023-03-22T08:54:35.525Z,19.45
2023-03-22T08:57:38.910Z,20.90
2023-03-22T09:00:48.631Z,23.88
2023-03-22T09:03:51.676Z,22.77
2023-03-22T09:06:53.810Z,17.02
2023-03-22T09:09:56.120Z,17.88
2023-03-22T09:12:58.348Z,16.40
2023-03-22T09:16:01.019Z,15.57
2023-03-22T09:19:04.249Z,15.75
2023-03-22T09:22:07.008Z,14.50
2023-03-22T09:25:12.075Z,14.32
2023-03-22T09:28:16.551Z,14.35
2023-03-22T09:31:20.566Z,15.43
2023-03-22T09:34:23.165Z,13.27
2023-03-22T09:37:30.677Z,12.20
2023-03-22T09:40:35.229Z,11.88
2023-03-22T09:43:42.184Z,13.00
2023-03-22T09:46:48.964Z,12.02
2023-03-22T09:50:02.536Z,12.32
2023-03-22T09:53:09.287Z,11.55
2023-03-22T09:56:23.188Z,11.43
2023-03-22T09:59:46.977Z,12.57
2023-03-22T10:03:05.372Z,12.57
2023-03-22T10:06:13.865Z,11.52
2023-03-22T10:09:54.869Z,12.65
2023-03-22T10:13:05.375Z,12.30
2023-03-22T10:16:13.353Z,10.95
2023-03-22T10:19:31.471Z,10.75
2023-03-22T10:22:42.703Z,9.77
2023-03-22T10:25:56.110Z,10.65
2023-03-22T10:29:15.471Z,9.65
2023-03-22T10:32:54.815Z,10.43
2023-03-22T10:36:01.287Z,10.95
2023-03-22T10:39:16.740Z,9.90
2023-03-22T10:42:24.666Z,10.00
2023-03-22T10:45:28.114Z,11.02
2023-03-22T10:48:34.057Z,11.00
2023-03-22T10:52:02.602Z,9.40
2023-03-22T10:55:17.241Z,11.23
2023-03-22T10:58:21.607Z,11.18
2023-03-22T11:01:28.397Z,11.80
2023-03-22T11:04:31.414Z,9.93
2023-03-22T11:07:44.126Z,10.55
2023-03-22T11:10:52.382Z,9.38
2023-03-22T11:14:23.685Z,10.60
2023-03-22T11:17:26.138Z,11.40
2023-03-22T11:20:31.002Z,9.88
2023-03-22T11:23:36.078Z,10.55
2023-03-22T11:26:40.787Z,12.25
2023-03-22T11:29:50.348Z,11.02
2023-03-22T11:33:21.406Z,10.30
2023-03-22T11:36:24.691Z,11.35
2023-03-22T11:39:28.562Z,19.98
2023-03-22T11:42:34.736Z,11.00
2023-03-22T11:45:41.186Z,11.07
2023-03-22T11:48:46.663Z,13.30
2023-03-22T11:51:49.138Z,10.77
2023-03-22T11:54:52.740Z,10.93
2023-03-22T11:57:56.982Z,8.90
2023-03-22T12:01:02.079Z,10.18
2023-03-22T12:04:08.881Z,9.15
2023-03-22T12:07:16.805Z,9.32
2023-03-22T12:10:28.637Z,11.48
2023-03-22T12:13:40.031Z,11.20
2023-03-22T12:16:52.600Z,10.93
2023-03-22T12:20:20.503Z,9.75
2023-03-22T12:23:31.158Z,11.05
2023-03-22T12:26:35.168Z,8.48
2023-03-22T12:29:39.709Z,9.32
2023-03-22T12:32:47.334Z,9.85
2023-03-22T12:35:52.274Z,19.67
2023-03-22T12:38:57.379Z,20.65
2023-03-22T12:42:24.889Z,15.60
2023-03-22T12:45:31.292Z,7.22
2023-03-22T12:48:51.256Z,7.35
2023-03-22T12:52:12.120Z,12.20
2023-03-22T12:55:41.256Z,9.77
2023-03-22T12:58:49.004Z,6.88
2023-03-22T13:01:58.523Z,8.38
2023-03-22T13:05:04.947Z,7.75
2023-03-22T13:08:07.089Z,12.57
2023-03-22T13:11:22.562Z,21.02
2023-03-22T13:14:51.191Z,17.23
2023-03-22T13:17:53.690Z,13.13
2023-03-22T13:21:29.922Z,12.02
2023-03-22T13:24:32.609Z,9.60
2023-03-22T13:27:43.645Z,8.13
2023-03-22T13:30:54.833Z,8.40
2023-03-22T13:34:01.197Z,10.10
2023-03-22T13:37:08.034Z,9.30
2023-03-22T13:40:29.808Z,13.95
2023-03-22T13:43:34.062Z,10.05
2023-03-22T13:46:36.189Z,8.60
2023-03-22T13:49:51.386Z,7.43
2023-03-22T13:53:01.173Z,7.47
2023-03-22T13:56:07.037Z,8.60
2023-03-22T13:59:27.291Z,7.32
2023-03-22T14:02:36.146Z,7.47
2023-03-22T14:05:39.206Z,7.88
2023-03-22T14:08:44.615Z,7.82
2023-03-22T14:11:52.588Z,7.53
2023-03-22T14:15:00.366Z,13.52
2023-03-22T14:18:21.534Z,7.55
2023-03-22T14:21:30.383Z,6.32
